createdAt,value
2022-09-06T00:01:29.846Z,22.20
2022-09-06T00:03:56.822Z,22.20
2022-09-06T00:06:23.785Z,22.10
2022-09-06T00:08:50.948Z,22.10
2022-09-06T00:11:18.705Z,22.10
2022-09-06T00:13:46.354Z,22.10
2022-09-06T00:16:16.458Z,22.10
2022-09-06T00:18:43.855Z,22.10
2022-09-06T00:21:24.763Z,22.10
2022-09-06T00:23:52.587Z,22.10
2022-09-06T00:26:20.474Z,22.00
2022-09-06T00:28:47.712Z,22.00
2022-09-06T00:31:20.738Z,22.00
2022-09-06T00:33:47.826Z,22.00
2022-09-06T00:36:15.556Z,22.00
2022-09-06T00:38:43.004Z,22.00
2022-09-06T00:41:12.187Z,22.00
2022-09-06T00:43:39.233Z,21.90
2022-09-06T00:46:08.497Z,22.00
2022-09-06T00:48:37.454Z,22.00
2022-09-06T00:51:07.086Z,21.90
2022-09-06T00:53:34.417Z,21.90
2022-09-06T00:56:01.956Z,21.90
2022-09-06T00:58:29.236Z,21.90
2022-09-06T01:00:56.729Z,21.90
2022-09-06T01:03:25.611Z,21.80
2022-09-06T01:06:17.126Z,21.80
2022-09-06T01:09:08.744Z,21.90
2022-09-06T01:12:12.708Z,21.90
2022-09-06T01:15:05.312Z,21.90
2022-09-06T01:18:09.089Z,21.80
2022-09-06T01:20:45.179Z,21.80
2022-09-06T01:23:12.164Z,21.80
2022-09-06T01:26:02.800Z,21.80
2022-09-06T01:28:46.819Z,21.80
2022-09-06T01:31:25.996Z,21.80
2022-09-06T01:34:08.281Z,21.80
2022-09-06T01:37:08.581Z,21.70
2022-09-06T01:39:36.520Z,21.80
2022-09-06T01:42:15.255Z,21.70
2022-09-06T01:44:53.730Z,21.70
2022-09-06T01:47:25.992Z,21.70
2022-09-06T01:50:01.424Z,21.70
2022-09-06T01:52:39.770Z,21.70
2022-09-06T01:55:31.487Z,21.70
2022-09-06T01:58:08.761Z,21.70
2022-09-06T02:00:55.367Z,21.70
2022-09-06T02:03:25.061Z,21.70
2022-09-06T02:05:56.899Z,21.70
2022-09-06T02:08:47.792Z,21.70
2022-09-06T02:11:16.480Z,21.70
2022-09-06T02:13:54.960Z,21.60
2022-09-06T02:16:26.772Z,21.60
2022-09-06T02:19:16.434Z,21.60
2022-09-06T02:21:45.805Z,21.60
2022-09-06T02:24:18.827Z,21.60
2022-09-06T02:26:46.660Z,21.60
2022-09-06T02:29:14.527Z,21.70
2022-09-06T02:32:00.928Z,21.60
2022-09-06T02:34:28.051Z,21.70
2022-09-06T02:36:56.458Z,21.60
2022-09-06T02:39:24.921Z,21.70
2022-09-06T02:41:52.405Z,21.60
2022-09-06T02:44:19.332Z,21.70
2022-09-06T02:46:46.374Z,21.70
2022-09-06T02:49:13.338Z,21.60
2022-09-06T02:51:40.712Z,21.60
2022-09-06T02:54:08.087Z,21.60
2022-09-06T02:56:36.639Z,21.70
2022-09-06T02:59:05.551Z,21.70
2022-09-06T03:01:32.984Z,21.60
2022-09-06T03:03:59.988Z,21.60
2022-09-06T03:06:27.067Z,21.60
2022-09-06T03:08:54.036Z,21.60
2022-09-06T03:11:21.046Z,21.60
2022-09-06T03:13:51.063Z,21.60
2022-09-06T03:16:18.716Z,21.60
2022-09-06T03:18:46.944Z,21.60
2022-09-06T03:21:14.622Z,21.60
2022-09-06T03:23:41.636Z,21.60
2022-09-06T03:26:08.607Z,21.60
2022-09-06T03:28:35.655Z,21.60
2022-09-06T03:31:02.708Z,21.60
2022-09-06T03:33:29.823Z,21.60
2022-09-06T03:36:01.702Z,21.50
2022-09-06T03:38:29.455Z,21.50
2022-09-06T03:40:56.873Z,21.50
2022-09-06T03:43:25.919Z,21.50
2022-09-06T03:45:55.405Z,21.50
2022-09-06T03:48:23.908Z,21.50
2022-09-06T03:50:54.195Z,21.50
2022-09-06T03:53:22.013Z,21.50
2022-09-06T03:55:51.476Z,21.40
2022-09-06T03:58:20.727Z,21.50
2022-09-06T04:00:47.889Z,21.40
2022-09-06T04:03:14.923Z,21.40
2022-09-06T04:05:46.415Z,21.40
2022-09-06T04:08:13.738Z,21.40
2022-09-06T04:10:41.088Z,21.40
2022-09-06T04:13:08.057Z,21.40
2022-09-06T04:15:35.012Z,21.30
2022-09-06T04:18:03.985Z,21.30
2022-09-06T04:20:35.055Z,21.30
2022-09-06T04:23:01.971Z,21.30
2022-09-06T04:25:28.895Z,21.30
2022-09-06T04:27:55.889Z,21.30
2022-09-06T04:30:22.850Z,21.30
2022-09-06T04:32:49.816Z,21.30
2022-09-06T04:35:16.872Z,21.30
2022-09-06T04:37:43.898Z,21.30
2022-09-06T04:40:11.239Z,21.30
2022-09-06T04:42:38.308Z,21.30
2022-09-06T04:45:05.784Z,21.30
2022-09-06T04:47:32.801Z,21.30
2022-09-06T04:49:59.772Z,21.30
2022-09-06T04:52:30.043Z,21.30
2022-09-06T04:54:57.345Z,21.30
2022-09-06T04:57:24.277Z,21.30
2022-09-06T04:59:51.195Z,21.40
2022-09-06T05:02:18.207Z,21.40
2022-09-06T05:04:45.189Z,21.40
2022-09-06T05:07:12.348Z,21.50
2022-09-06T05:09:39.297Z,21.50
2022-09-06T05:12:06.560Z,21.50
2022-09-06T05:14:33.539Z,21.60
2022-09-06T05:17:00.529Z,21.70
2022-09-06T05:19:27.496Z,21.70
2022-09-06T05:21:54.456Z,21.80
2022-09-06T05:24:21.394Z,21.80
2022-09-06T05:26:48.359Z,21.90
2022-09-06T05:29:15.321Z,22.20
2022-09-06T05:31:42.304Z,22.70
2022-09-06T05:34:10.514Z,23.10
2022-09-06T05:36:38.781Z,23.60
2022-09-06T05:39:05.839Z,23.90
2022-09-06T05:41:33.804Z,24.10
2022-09-06T05:44:00.931Z,24.30
2022-09-06T05:46:27.855Z,24.60
2022-09-06T05:49:01.347Z,25.00
2022-09-06T05:51:28.209Z,25.40
2022-09-06T05:53:55.158Z,25.70
2022-09-06T05:56:22.640Z,26.00
2022-09-06T05:58:49.843Z,26.30
2022-09-06T06:01:19.800Z,26.70
2022-09-06T06:03:51.836Z,27.00
2022-09-06T06:06:19.456Z,27.30
2022-09-06T06:08:46.725Z,27.60
2022-09-06T06:11:14.348Z,28.00
2022-09-06T06:13:43.177Z,28.20
2022-09-06T06:16:15.630Z,28.50
2022-09-06T06:18:47.676Z,28.90
2022-09-06T06:21:30.333Z,29.20
2022-09-06T06:24:02.453Z,29.60
2022-09-06T06:26:32.066Z,29.90
2022-09-06T06:29:01.966Z,30.30
2022-09-06T06:31:33.490Z,30.60
2022-09-06T06:34:03.247Z,31.10
2022-09-06T06:36:34.214Z,31.30
2022-09-06T06:39:02.474Z,31.50
2022-09-06T06:41:32.502Z,32.00
2022-09-06T06:44:01.707Z,32.30
2022-09-06T06:46:31.605Z,32.70
2022-09-06T06:48:59.011Z,33.00
2022-09-06T06:51:29.278Z,33.40
2022-09-06T06:54:02.451Z,33.70
2022-09-06T06:56:37.125Z,34.00
2022-09-06T06:59:06.938Z,34.30
2022-09-06T07:01:35.912Z,34.60
2022-09-06T07:04:04.116Z,34.80
2022-09-06T07:09:20.672Z,35.40
2022-09-06T07:11:51.370Z,35.60
2022-09-06T07:14:19.068Z,35.80
2022-09-06T07:16:46.510Z,36.10
2022-09-06T07:22:04.431Z,36.70
2022-09-06T07:24:32.804Z,36.90
2022-09-06T07:29:47.023Z,36.90
2022-09-06T07:32:13.979Z,36.80
2022-09-06T07:34:41.707Z,36.50
2022-09-06T07:37:08.653Z,36.10
2022-09-06T07:39:37.130Z,36.10
2022-09-06T07:42:04.699Z,36.10
2022-09-06T07:44:31.672Z,36.10
2022-09-06T07:55:19.931Z,35.40
2022-09-06T07:57:46.955Z,35.00
2022-09-06T08:00:14.157Z,34.70
2022-09-06T08:02:41.161Z,34.50
2022-09-06T08:10:42.518Z,35.30
2022-09-06T08:13:09.538Z,35.30
2022-09-06T08:15:36.552Z,35.50
2022-09-06T08:18:03.608Z,35.40
2022-09-06T08:20:30.823Z,35.00
2022-09-06T08:22:57.785Z,35.00
2022-09-06T08:25:25.676Z,35.70
2022-09-06T08:27:52.665Z,35.80
2022-09-06T08:30:19.754Z,35.90
2022-09-06T08:32:46.754Z,36.20
2022-09-06T08:35:13.769Z,36.30
2022-09-06T08:37:40.708Z,36.30
2022-09-06T08:40:08.403Z,36.60
2022-09-06T08:42:39.994Z,36.60
2022-09-06T08:45:12.537Z,36.70
2022-09-06T08:47:39.536Z,36.60
2022-09-06T08:50:08.023Z,36.40
2022-09-06T08:52:45.403Z,36.40
2022-09-06T08:55:24.598Z,36.30
2022-09-06T08:58:29.319Z,36.30
2022-09-06T09:01:07.538Z,36.40
2022-09-06T09:03:37.421Z,36.50
2022-09-06T09:06:07.209Z,37.00
2022-09-06T09:08:52.831Z,37.10
2022-09-06T09:11:25.451Z,37.00
2022-09-06T09:13:55.467Z,37.00
2022-09-06T09:16:23.434Z,37.10
2022-09-06T09:18:53.845Z,36.70
2022-09-06T09:21:29.588Z,36.70
2022-09-06T09:24:10.267Z,36.40
2022-09-06T09:27:16.144Z,35.80
2022-09-06T09:32:45.227Z,35.50
2022-09-06T09:35:20.299Z,35.60
2022-09-06T09:37:49.287Z,35.50
2022-09-06T09:40:25.452Z,35.50
2022-09-06T09:42:56.799Z,35.30
2022-09-06T09:45:23.828Z,35.10
2022-09-06T09:47:51.055Z,35.20
2022-09-06T09:50:35.144Z,35.10
2022-09-06T09:53:11.247Z,34.70
2022-09-06T09:55:39.155Z,34.40
2022-09-06T09:58:09.019Z,34.50
2022-09-06T10:00:41.553Z,34.50
2022-09-06T10:03:20.115Z,34.40
2022-09-06T10:06:02.531Z,34.40
2022-09-06T10:08:33.750Z,34.50
2022-09-06T10:11:01.013Z,34.30
2022-09-06T10:13:30.896Z,34.20
2022-09-06T10:15:59.631Z,33.80
2022-09-06T10:18:42.872Z,33.50
2022-09-06T10:21:11.214Z,33.50
2022-09-06T10:26:59.155Z,33.60
2022-09-06T10:29:39.387Z,33.80
2022-09-06T10:32:09.311Z,33.80
2022-09-06T10:35:00.736Z,34.00
2022-09-06T10:37:52.244Z,34.30
2022-09-06T10:40:53.410Z,35.00
2022-09-06T10:43:20.953Z,35.50
2022-09-06T10:46:09.384Z,36.20
2022-09-06T10:48:41.183Z,36.40
2022-09-06T10:51:50.145Z,36.30
2022-09-06T10:54:23.779Z,35.60
2022-09-06T10:57:03.061Z,35.40
2022-09-06T10:59:52.150Z,35.30
2022-09-06T11:02:48.618Z,35.50
2022-09-06T11:10:58.444Z,35.70
2022-09-06T11:13:27.804Z,35.90
2022-09-06T11:15:57.552Z,36.10
2022-09-06T11:18:33.697Z,36.20
2022-09-06T11:21:22.441Z,36.20
2022-09-06T11:23:54.086Z,36.10
2022-09-06T11:26:42.869Z,36.10
2022-09-06T11:29:27.294Z,36.20
2022-09-06T11:32:16.689Z,36.30
2022-09-06T11:34:54.434Z,36.10
2022-09-06T11:37:32.697Z,35.80
2022-09-06T11:40:30.250Z,35.10
2022-09-06T11:42:59.359Z,34.20
2022-09-06T11:45:41.722Z,33.70
2022-09-06T11:48:24.067Z,33.30
2022-09-06T11:50:54.296Z,33.30
2022-09-06T11:53:24.593Z,33.70
2022-09-06T11:56:22.518Z,34.00
2022-09-06T11:58:56.356Z,34.40
2022-09-06T12:01:23.308Z,34.60
2022-09-06T12:04:09.689Z,34.80
2022-09-06T12:07:04.009Z,34.90
2022-09-06T12:09:34.375Z,35.00
2022-09-06T12:12:02.616Z,34.90
2022-09-06T12:14:48.204Z,34.70
2022-09-06T12:17:15.144Z,34.60
2022-09-06T12:19:55.559Z,34.70
2022-09-06T12:22:31.210Z,34.80
2022-09-06T12:25:07.868Z,34.70
2022-09-06T12:27:40.119Z,34.60
2022-09-06T12:30:13.897Z,34.50
2022-09-06T12:32:52.135Z,34.40
2022-09-06T12:38:24.231Z,33.90
2022-09-06T12:40:56.456Z,33.90
2022-09-06T12:43:23.433Z,33.60
2022-09-06T12:45:52.372Z,33.20
2022-09-06T12:48:28.595Z,33.30
2022-09-06T12:51:06.893Z,33.50
2022-09-06T12:53:34.987Z,33.60
2022-09-06T12:56:12.171Z,33.40
2022-09-06T12:58:39.660Z,33.40
2022-09-06T13:01:33.253Z,33.30
2022-09-06T13:04:08.531Z,33.40
2022-09-06T13:06:40.831Z,33.40
2022-09-06T13:09:12.784Z,33.20
2022-09-06T13:11:44.108Z,33.00
2022-09-06T13:14:14.689Z,32.90
2022-09-06T13:16:51.340Z,32.70
2022-09-06T13:19:39.275Z,32.80
2022-09-06T13:22:10.940Z,33.00
2022-09-06T13:24:47.112Z,33.20
2022-09-06T13:27:39.101Z,33.10
2022-09-06T13:30:09.203Z,32.90
2022-09-06T13:32:45.396Z,32.90
2022-09-06T13:35:30.155Z,32.90
2022-09-06T13:38:38.106Z,32.80
2022-09-06T13:41:15.824Z,32.60
2022-09-06T13:43:45.525Z,32.30
2022-09-06T13:46:12.620Z,32.20
2022-09-06T13:48:40.001Z,32.20
2022-09-06T13:51:08.776Z,32.40
2022-09-06T13:53:36.326Z,32.60
2022-09-06T13:56:03.940Z,32.90
2022-09-06T13:58:30.863Z,33.10
2022-09-06T14:00:59.039Z,33.30
2022-09-06T14:03:31.584Z,33.40
2022-09-06T14:06:00.369Z,33.50
2022-09-06T14:08:43.396Z,33.40
2022-09-06T14:11:15.760Z,33.00
2022-09-06T14:13:42.790Z,32.60
2022-09-06T14:16:09.926Z,32.20
2022-09-06T14:18:36.973Z,32.00
2022-09-06T14:21:05.462Z,32.10
2022-09-06T14:23:32.390Z,32.20
2022-09-06T14:26:01.738Z,32.30
2022-09-06T14:28:31.107Z,32.30
2022-09-06T14:30:58.307Z,32.40
2022-09-06T14:33:25.392Z,32.70
2022-09-06T14:35:52.427Z,33.20
2022-09-06T14:38:19.694Z,33.70
2022-09-06T14:40:47.374Z,34.00
2022-09-06T14:43:14.973Z,34.20
2022-09-06T14:45:41.914Z,34.30
2022-09-06T14:48:09.455Z,34.30
2022-09-06T14:50:37.334Z,34.40
2022-09-06T14:53:08.873Z,34.20
2022-09-06T14:55:45.821Z,34.20
2022-09-06T14:58:14.946Z,34.20
2022-09-06T15:00:44.799Z,34.20
2022-09-06T15:03:11.744Z,34.40
2022-09-06T15:05:38.710Z,34.60
2022-09-06T15:08:06.223Z,34.80
2022-09-06T15:10:33.184Z,35.20
2022-09-06T15:13:00.220Z,35.60
2022-09-06T15:15:27.257Z,35.70
2022-09-06T15:17:54.252Z,35.60
2022-09-06T15:20:21.271Z,35.60
2022-09-06T15:22:56.310Z,35.50
2022-09-06T15:25:36.192Z,35.50
2022-09-06T15:28:03.398Z,35.40
2022-09-06T15:30:30.493Z,35.30
2022-09-06T15:32:57.469Z,35.00
2022-09-06T15:35:24.476Z,34.70
2022-09-06T15:37:51.477Z,34.60
2022-09-06T15:40:19.248Z,34.30
2022-09-06T15:42:46.416Z,34.20
2022-09-06T15:45:13.435Z,33.90
2022-09-06T15:47:40.567Z,33.60
2022-09-06T15:50:07.890Z,33.40
2022-09-06T15:52:34.892Z,33.20
2022-09-06T15:55:20.355Z,33.20
2022-09-06T15:57:47.547Z,33.10
2022-09-06T16:00:17.180Z,33.00
2022-09-06T16:02:44.833Z,32.90
2022-09-06T16:05:11.887Z,32.80
2022-09-06T16:07:43.042Z,32.60
2022-09-06T16:10:13.528Z,32.40
2022-09-06T16:12:40.517Z,32.20
2022-09-06T16:15:08.192Z,32.10
2022-09-06T16:17:35.394Z,32.10
2022-09-06T16:20:03.525Z,32.10
2022-09-06T16:22:30.979Z,31.90
2022-09-06T16:24:58.074Z,31.70
2022-09-06T16:27:26.300Z,31.50
2022-09-06T16:29:53.344Z,31.30
2022-09-06T16:32:21.090Z,31.20
2022-09-06T16:34:48.344Z,31.10
2022-09-06T16:37:15.676Z,30.90
2022-09-06T16:39:43.222Z,30.80
2022-09-06T16:42:11.140Z,30.60
2022-09-06T16:44:38.642Z,30.40
2022-09-06T16:47:06.134Z,30.30
2022-09-06T16:49:33.305Z,30.20
2022-09-06T16:52:00.663Z,30.00
2022-09-06T16:54:27.866Z,29.90
2022-09-06T16:56:55.044Z,29.70
2022-09-06T16:59:22.395Z,29.60
2022-09-06T17:01:49.638Z,29.40
2022-09-06T17:04:16.837Z,29.30
2022-09-06T17:06:47.326Z,29.10
2022-09-06T17:09:16.735Z,29.00
2022-09-06T17:11:43.738Z,28.90
2022-09-06T17:14:10.836Z,28.80
2022-09-06T17:16:56.367Z,28.70
2022-09-06T17:19:23.484Z,28.60
2022-09-06T17:21:50.771Z,28.40
2022-09-06T17:24:17.814Z,28.40
2022-09-06T17:26:44.795Z,28.30
2022-09-06T17:29:11.836Z,28.10
2022-09-06T17:31:38.950Z,28.10
2022-09-06T17:34:07.758Z,28.00
2022-09-06T17:36:35.873Z,27.80
2022-09-06T17:39:08.347Z,27.80
2022-09-06T17:41:38.805Z,27.70
2022-09-06T17:44:11.173Z,27.60
2022-09-06T17:46:52.047Z,27.50
2022-09-06T17:49:25.798Z,27.30
2022-09-06T17:51:52.947Z,27.30
2022-09-06T17:54:19.906Z,27.20
2022-09-06T17:56:46.992Z,27.20
2022-09-06T17:59:15.687Z,27.10
2022-09-06T18:01:45.929Z,27.00
2022-09-06T18:04:14.236Z,27.00
2022-09-06T18:06:43.451Z,26.90
2022-09-06T18:09:14.857Z,26.80
2022-09-06T18:11:42.488Z,26.80
2022-09-06T18:14:12.098Z,26.70
2022-09-06T18:16:40.573Z,26.70
2022-09-06T18:19:08.894Z,26.60
2022-09-06T18:21:38.877Z,26.50
2022-09-06T18:24:06.538Z,26.50
2022-09-06T18:26:33.569Z,26.50
2022-09-06T18:29:01.600Z,26.40
2022-09-06T18:31:29.040Z,26.30
2022-09-06T18:33:58.990Z,26.30
2022-09-06T18:36:31.997Z,26.20
2022-09-06T18:39:04.275Z,26.20
2022-09-06T18:41:51.272Z,26.10
2022-09-06T18:44:18.808Z,26.00
2022-09-06T18:46:46.199Z,26.00
2022-09-06T18:49:15.132Z,25.90
2022-09-06T18:51:42.957Z,25.80
2022-09-06T18:54:11.174Z,25.80
2022-09-06T18:56:38.772Z,25.70
2022-09-06T18:59:07.114Z,25.70
2022-09-06T19:01:35.153Z,25.70
2022-09-06T19:04:03.746Z,25.60
2022-09-06T19:06:32.547Z,25.60
2022-09-06T19:09:04.432Z,25.60
2022-09-06T19:11:32.102Z,25.60
2022-09-06T19:13:59.398Z,25.50
2022-09-06T19:16:27.783Z,25.50
2022-09-06T19:18:56.848Z,25.50
2022-09-06T19:21:25.589Z,25.40
2022-09-06T19:24:07.224Z,25.40
2022-09-06T19:26:37.690Z,25.40
2022-09-06T19:29:08.960Z,25.40
2022-09-06T19:31:38.263Z,25.40
2022-09-06T19:34:05.674Z,25.40
2022-09-06T19:36:33.171Z,25.40
2022-09-06T19:39:06.574Z,25.40
2022-09-06T19:41:35.553Z,25.40
2022-09-06T19:44:05.517Z,25.30
2022-09-06T19:46:32.750Z,25.30
2022-09-06T19:49:00.577Z,25.30
2022-09-06T19:51:27.866Z,25.30
2022-09-06T19:54:00.061Z,25.30
2022-09-06T19:56:31.610Z,25.20
2022-09-06T19:59:00.830Z,25.20
2022-09-06T20:01:31.127Z,25.20
2022-09-06T20:03:59.927Z,25.20
2022-09-06T20:06:27.444Z,25.20
2022-09-06T20:08:56.608Z,25.20
2022-09-06T20:11:26.489Z,25.20
2022-09-06T20:13:53.754Z,25.20
2022-09-06T20:16:21.193Z,25.20
2022-09-06T20:18:49.114Z,25.20
2022-09-06T20:21:18.432Z,25.20
2022-09-06T20:23:52.646Z,25.10
2022-09-06T20:26:20.762Z,25.10
2022-09-06T20:28:48.957Z,25.10
2022-09-06T20:31:18.635Z,25.00
2022-09-06T20:33:49.722Z,25.00
2022-09-06T20:36:18.246Z,25.00
2022-09-06T20:38:46.996Z,24.90
2022-09-06T20:41:20.098Z,24.90
2022-09-06T20:43:52.109Z,24.80
2022-09-06T20:46:20.618Z,24.80
2022-09-06T20:48:48.048Z,24.80
2022-09-06T20:51:23.587Z,24.80
2022-09-06T20:53:56.569Z,24.80
2022-09-06T20:56:35.428Z,24.70
2022-09-06T20:59:05.184Z,24.70
2022-09-06T21:01:35.142Z,24.60
2022-09-06T21:04:04.446Z,24.60
2022-09-06T21:06:35.867Z,24.60
2022-09-06T21:09:04.897Z,24.60
2022-09-06T21:11:31.862Z,24.60
2022-09-06T21:13:59.110Z,24.60
2022-09-06T21:16:28.386Z,24.60
2022-09-06T21:18:58.155Z,24.60
2022-09-06T21:21:26.502Z,24.50
2022-09-06T21:23:54.087Z,24.50
2022-09-06T21:26:22.403Z,24.50
2022-09-06T21:28:49.989Z,24.50
2022-09-06T21:31:25.760Z,24.40
2022-09-06T21:33:55.208Z,24.40
2022-09-06T21:36:24.987Z,24.30
2022-09-06T21:38:59.081Z,24.30
2022-09-06T21:41:27.547Z,24.20
2022-09-06T21:43:56.892Z,24.20
2022-09-06T21:46:30.305Z,24.20
2022-09-06T21:49:01.782Z,24.10
2022-09-06T21:51:28.730Z,24.10
2022-09-06T21:53:57.033Z,24.10
2022-09-06T21:56:25.003Z,24.10
2022-09-06T21:58:55.430Z,24.10
2022-09-06T22:01:27.908Z,24.00
2022-09-06T22:03:55.486Z,24.10
2022-09-06T22:06:28.951Z,24.00
2022-09-06T22:08:57.763Z,24.00
2022-09-06T22:11:28.380Z,24.00
2022-09-06T22:13:59.332Z,24.00
2022-09-06T22:16:27.988Z,24.10
2022-09-06T22:18:55.467Z,24.00
2022-09-06T22:21:23.062Z,24.00
2022-09-06T22:24:01.154Z,24.00
2022-09-06T22:26:30.267Z,24.00
2022-09-06T22:28:59.948Z,24.00
2022-09-06T22:31:28.735Z,24.00
2022-09-06T22:33:56.768Z,24.00
2022-09-06T22:36:25.546Z,24.00
2022-09-06T22:38:57.186Z,23.90
2022-09-06T22:41:30.126Z,24.00
2022-09-06T22:44:00.196Z,24.00
2022-09-06T22:46:27.505Z,23.90
2022-09-06T22:48:54.688Z,23.90
2022-09-06T22:51:21.748Z,23.90
2022-09-06T22:53:48.686Z,23.90
2022-09-06T22:56:15.657Z,23.90
2022-09-06T22:58:42.788Z,23.90
2022-09-06T23:01:12.258Z,23.90
2022-09-06T23:03:40.545Z,23.90
2022-09-06T23:06:08.554Z,23.90
2022-09-06T23:08:37.806Z,23.90
2022-09-06T23:11:07.372Z,23.90
2022-09-06T23:13:34.420Z,23.90
2022-09-06T23:16:06.852Z,23.80
2022-09-06T23:18:34.694Z,23.90
2022-09-06T23:21:08.304Z,23.90
2022-09-06T23:23:35.817Z,23.90
2022-09-06T23:26:08.821Z,23.80
2022-09-06T23:28:37.171Z,23.80
2022-09-06T23:31:09.016Z,23.90
2022-09-06T23:33:37.317Z,23.90
2022-09-06T23:36:12.708Z,24.00
2022-09-06T23:38:41.428Z,24.00
2022-09-06T23:41:09.907Z,23.90
2022-09-06T23:43:37.653Z,23.90
2022-09-06T23:46:05.221Z,23.90
2022-09-06T23:48:32.514Z,23.90
2022-09-06T23:50:59.780Z,23.90
2022-09-06T23:53:26.872Z,23.90
2022-09-06T23:55:54.325Z,23.90
2022-09-06T23:58:21.490Z,23.80
